YRDMO LRBS-LRBC
Flight info
| Callsign | YRDMO |
|---|---|
| Flight time | 0h 38m |
| Altitude | 21000 |
| Route | DENAK DCT FOCSA/N0246F090 T74 KENUX |
| Aircraft | SF50/L-BDGRSWY/LB2U2 |
Departure
| Time | 2026-05-04 19:58 |
|---|---|
| Airport | Bucharest Băneasa Aurel Vlaicu International Airport (LRBS) |
Arrival
| Time | 2026-05-04 20:36 |
|---|---|
| Airport | Bacău George Enescu International Airport (LRBC) |
| Time | Latitude | Longitude | Altitude | Speed | Heading |
|---|---|---|---|---|---|
| 2026-05-04 19:36 | 44.49659 | 26.08373 | 300 ft | 0 kts | 179° |
| 2026-05-04 19:55 | 44.49652 | 26.08366 | 300 ft | 4 kts | 255° |
| 2026-05-04 19:55 | 44.49671 | 26.08346 | 302 ft | 3 kts | 353° |
| 2026-05-04 19:55 | 44.49680 | 26.08345 | 300 ft | 0 kts | 353° |
| 2026-05-04 19:55 | 44.49682 | 26.08344 | 300 ft | 1 kts | 354° |
| 2026-05-04 19:56 | 44.49716 | 26.08340 | 301 ft | 8 kts | 355° |
| 2026-05-04 19:56 | 44.49764 | 26.08314 | 300 ft | 8 kts | 298° |
| 2026-05-04 19:56 | 44.49775 | 26.08233 | 300 ft | 9 kts | 284° |
| 2026-05-04 19:56 | 44.49816 | 26.08165 | 300 ft | 10 kts | 346° |
| 2026-05-04 19:57 | 44.49878 | 26.08179 | 300 ft | 9 kts | 35° |
| 2026-05-04 19:57 | 44.49911 | 26.08253 | 300 ft | 9 kts | 71° |
| 2026-05-04 19:57 | 44.49928 | 26.08331 | 303 ft | 8 kts | 75° |
| 2026-05-04 19:57 | 44.49949 | 26.08436 | 302 ft | 30 kts | 73° |
| 2026-05-04 19:58 | 44.50093 | 26.09099 | 331 ft | 105 kts | 75° |
| 2026-05-04 19:58 | 44.50277 | 26.10158 | 859 ft | 117 kts | 78° |
| 2026-05-04 19:58 | 44.50475 | 26.11403 | 1288 ft | 150 kts | 80° |
| 2026-05-04 19:58 | 44.50601 | 26.12986 | 1881 ft | 178 kts | 87° |
| 2026-05-04 19:59 | 44.50686 | 26.14662 | 3053 ft | 166 kts | 83° |
| 2026-05-04 19:59 | 44.50786 | 26.16267 | 3993 ft | 165 kts | 82° |
| 2026-05-04 19:59 | 44.50879 | 26.17907 | 4607 ft | 171 kts | 82° |
| 2026-05-04 19:59 | 44.50973 | 26.19555 | 5320 ft | 168 kts | 77° |
| 2026-05-04 20:00 | 44.51602 | 26.20810 | 5993 ft | 160 kts | 26° |
| 2026-05-04 20:00 | 44.52667 | 26.21202 | 6699 ft | 158 kts | 10° |
| 2026-05-04 20:00 | 44.53752 | 26.21409 | 7379 ft | 157 kts | 12° |
| 2026-05-04 20:00 | 44.54823 | 26.21703 | 8042 ft | 157 kts | 15° |
| 2026-05-04 20:01 | 44.55886 | 26.22019 | 8741 ft | 156 kts | 15° |
| 2026-05-04 20:01 | 44.56943 | 26.22343 | 9440 ft | 156 kts | 16° |
| 2026-05-04 20:01 | 44.58002 | 26.22664 | 10131 ft | 155 kts | 16° |
| 2026-05-04 20:01 | 44.59049 | 26.22987 | 10713 ft | 158 kts | 17° |
| 2026-05-04 20:02 | 44.60150 | 26.23323 | 11308 ft | 161 kts | 17° |
| 2026-05-04 20:02 | 44.61239 | 26.23656 | 11892 ft | 164 kts | 17° |
| 2026-05-04 20:02 | 44.62377 | 26.24007 | 12474 ft | 167 kts | 17° |
| 2026-05-04 20:02 | 44.63502 | 26.24352 | 13036 ft | 169 kts | 17° |
| 2026-05-04 20:03 | 44.64662 | 26.24711 | 13595 ft | 172 kts | 17° |
| 2026-05-04 20:03 | 44.65842 | 26.25072 | 14114 ft | 175 kts | 17° |
| 2026-05-04 20:03 | 44.67035 | 26.25447 | 14609 ft | 177 kts | 17° |
| 2026-05-04 20:03 | 44.68246 | 26.25814 | 15111 ft | 179 kts | 17° |
| 2026-05-04 20:04 | 44.69467 | 26.26187 | 15600 ft | 180 kts | 17° |
| 2026-05-04 20:04 | 44.70697 | 26.26567 | 16090 ft | 182 kts | 17° |
| 2026-05-04 20:04 | 44.71943 | 26.26948 | 16569 ft | 184 kts | 16° |
| 2026-05-04 20:04 | 44.73203 | 26.27337 | 17043 ft | 186 kts | 16° |
| 2026-05-04 20:05 | 44.74477 | 26.27728 | 17520 ft | 188 kts | 16° |
| 2026-05-04 20:05 | 44.75765 | 26.28127 | 17966 ft | 190 kts | 16° |
| 2026-05-04 20:05 | 44.77069 | 26.28528 | 18414 ft | 192 kts | 16° |
| 2026-05-04 20:05 | 44.78366 | 26.28931 | 18802 ft | 194 kts | 15° |
| 2026-05-04 20:06 | 44.79712 | 26.29345 | 19196 ft | 196 kts | 15° |
| 2026-05-04 20:06 | 44.81035 | 26.29756 | 19577 ft | 199 kts | 14° |
| 2026-05-04 20:06 | 44.81819 | 26.29997 | 19799 ft | 200 kts | 14° |
| 2026-05-04 20:06 | 44.83184 | 26.30412 | 20181 ft | 202 kts | 13° |
| 2026-05-04 20:07 | 44.84592 | 26.30847 | 20286 ft | 217 kts | 13° |
| 2026-05-04 20:07 | 44.86018 | 26.31287 | 20913 ft | 203 kts | 12° |
| 2026-05-04 20:07 | 44.87439 | 26.31728 | 21047 ft | 217 kts | 12° |
| 2026-05-04 20:07 | 44.88965 | 26.32200 | 21057 ft | 231 kts | 12° |
| 2026-05-04 20:08 | 44.90570 | 26.32700 | 21062 ft | 241 kts | 13° |
| 2026-05-04 20:08 | 44.92231 | 26.33217 | 21062 ft | 249 kts | 12° |
| 2026-05-04 20:08 | 44.93947 | 26.33749 | 21063 ft | 255 kts | 12° |
| 2026-05-04 20:08 | 44.95698 | 26.34295 | 21062 ft | 261 kts | 12° |
| 2026-05-04 20:09 | 44.97491 | 26.34862 | 21063 ft | 267 kts | 13° |
| 2026-05-04 20:09 | 44.99321 | 26.35460 | 21082 ft | 272 kts | 14° |
| 2026-05-04 20:09 | 45.01191 | 26.36041 | 21058 ft | 277 kts | 13° |
| 2026-05-04 20:09 | 45.03087 | 26.36620 | 21058 ft | 280 kts | 13° |
| 2026-05-04 20:10 | 45.05002 | 26.37217 | 21058 ft | 283 kts | 13° |
| 2026-05-04 20:10 | 45.06929 | 26.37820 | 21057 ft | 284 kts | 13° |
| 2026-05-04 20:10 | 45.08869 | 26.38425 | 21061 ft | 286 kts | 13° |
| 2026-05-04 20:10 | 45.10815 | 26.39031 | 21061 ft | 287 kts | 13° |
| 2026-05-04 20:11 | 45.12769 | 26.39643 | 21067 ft | 288 kts | 13° |
| 2026-05-04 20:11 | 45.14728 | 26.40254 | 21065 ft | 289 kts | 13° |
| 2026-05-04 20:11 | 45.16687 | 26.40867 | 21066 ft | 289 kts | 13° |
| 2026-05-04 20:11 | 45.18654 | 26.41485 | 21065 ft | 289 kts | 13° |
| 2026-05-04 20:12 | 45.20594 | 26.42092 | 21063 ft | 290 kts | 13° |
| 2026-05-04 20:12 | 45.22565 | 26.42710 | 21061 ft | 290 kts | 13° |
| 2026-05-04 20:12 | 45.24541 | 26.43327 | 21061 ft | 290 kts | 13° |
| 2026-05-04 20:12 | 45.26511 | 26.43946 | 21061 ft | 290 kts | 13° |
| 2026-05-04 20:13 | 45.28485 | 26.44565 | 21064 ft | 290 kts | 14° |
| 2026-05-04 20:13 | 45.30458 | 26.45185 | 21063 ft | 291 kts | 14° |
| 2026-05-04 20:13 | 45.30480 | 26.45192 | 21063 ft | 291 kts | 14° |
| 2026-05-04 20:14 | 45.31670 | 26.45557 | 21066 ft | 291 kts | 13° |
| 2026-05-04 20:14 | 45.33655 | 26.46144 | 21070 ft | 292 kts | 13° |
| 2026-05-04 20:14 | 45.35638 | 26.46765 | 21070 ft | 292 kts | 14° |
| 2026-05-04 20:15 | 45.37624 | 26.47405 | 21068 ft | 293 kts | 14° |
| 2026-05-04 20:15 | 45.39610 | 26.48033 | 21076 ft | 293 kts | 14° |
| 2026-05-04 20:15 | 45.41601 | 26.48658 | 21082 ft | 293 kts | 14° |
| 2026-05-04 20:15 | 45.43587 | 26.49286 | 21083 ft | 293 kts | 14° |
| 2026-05-04 20:16 | 45.45580 | 26.49918 | 21085 ft | 293 kts | 14° |
| 2026-05-04 20:16 | 45.47575 | 26.50548 | 21083 ft | 293 kts | 14° |
| 2026-05-04 20:16 | 45.49568 | 26.51179 | 21086 ft | 293 kts | 14° |
| 2026-05-04 20:16 | 45.51533 | 26.51801 | 21083 ft | 293 kts | 14° |
| 2026-05-04 20:17 | 45.53526 | 26.52433 | 21064 ft | 292 kts | 14° |
| 2026-05-04 20:17 | 45.55507 | 26.53063 | 21059 ft | 291 kts | 14° |
| 2026-05-04 20:17 | 45.57476 | 26.53688 | 21012 ft | 292 kts | 14° |
| 2026-05-04 20:17 | 45.59475 | 26.54325 | 20709 ft | 294 kts | 14° |
| 2026-05-04 20:18 | 45.61455 | 26.54955 | 20330 ft | 289 kts | 14° |
| 2026-05-04 20:18 | 45.63414 | 26.55575 | 19963 ft | 289 kts | 14° |
| 2026-05-04 20:18 | 45.65389 | 26.56205 | 19573 ft | 292 kts | 14° |
| 2026-05-04 20:18 | 45.67375 | 26.56840 | 19184 ft | 292 kts | 14° |
| 2026-05-04 20:19 | 45.69355 | 26.57470 | 18798 ft | 291 kts | 14° |
| 2026-05-04 20:19 | 45.71321 | 26.58101 | 18420 ft | 289 kts | 14° |
| 2026-05-04 20:19 | 45.73299 | 26.58731 | 18000 ft | 289 kts | 15° |
| 2026-05-04 20:19 | 45.75273 | 26.59368 | 17607 ft | 293 kts | 14° |
| 2026-05-04 20:20 | 45.77274 | 26.60001 | 17220 ft | 294 kts | 14° |
| 2026-05-04 20:20 | 45.79232 | 26.60624 | 16839 ft | 292 kts | 14° |
| 2026-05-04 20:20 | 45.81201 | 26.61257 | 16460 ft | 288 kts | 15° |
| 2026-05-04 20:20 | 45.83147 | 26.61883 | 16075 ft | 285 kts | 15° |
| 2026-05-04 20:21 | 45.85076 | 26.62514 | 15702 ft | 283 kts | 15° |
| 2026-05-04 20:21 | 45.87000 | 26.63124 | 15326 ft | 284 kts | 14° |
| 2026-05-04 20:21 | 45.90835 | 26.64348 | 14579 ft | 280 kts | 15° |
| 2026-05-04 20:22 | 45.92726 | 26.64958 | 14207 ft | 277 kts | 15° |
| 2026-05-04 20:22 | 45.94603 | 26.65562 | 13836 ft | 276 kts | 15° |
| 2026-05-04 20:22 | 45.96473 | 26.66164 | 13447 ft | 274 kts | 15° |
| 2026-05-04 20:22 | 45.98329 | 26.66762 | 13079 ft | 272 kts | 15° |
| 2026-05-04 20:23 | 46.00171 | 26.67358 | 12719 ft | 271 kts | 15° |
| 2026-05-04 20:23 | 46.01998 | 26.67946 | 12349 ft | 267 kts | 15° |
| 2026-05-04 20:23 | 46.03805 | 26.68530 | 12009 ft | 267 kts | 15° |
| 2026-05-04 20:23 | 46.05623 | 26.69119 | 11646 ft | 267 kts | 15° |
| 2026-05-04 20:24 | 46.07420 | 26.69700 | 11299 ft | 263 kts | 15° |
| 2026-05-04 20:24 | 46.09198 | 26.70275 | 10941 ft | 260 kts | 15° |
| 2026-05-04 20:24 | 46.10970 | 26.70848 | 10606 ft | 261 kts | 15° |
| 2026-05-04 20:24 | 46.12738 | 26.71423 | 10264 ft | 259 kts | 15° |
| 2026-05-04 20:25 | 46.13901 | 26.71799 | 10023 ft | 258 kts | 15° |
| 2026-05-04 20:25 | 46.15647 | 26.72364 | 9673 ft | 256 kts | 14° |
| 2026-05-04 20:25 | 46.17391 | 26.72930 | 9331 ft | 257 kts | 14° |
| 2026-05-04 20:25 | 46.19700 | 26.73681 | 8880 ft | 256 kts | 14° |
| 2026-05-04 20:26 | 46.20876 | 26.74063 | 8655 ft | 254 kts | 14° |
| 2026-05-04 20:26 | 46.22527 | 26.74598 | 8321 ft | 231 kts | 14° |
| 2026-05-04 20:26 | 46.24020 | 26.75080 | 8028 ft | 210 kts | 14° |
| 2026-05-04 20:26 | 46.25452 | 26.75550 | 7749 ft | 223 kts | 14° |
| 2026-05-04 20:27 | 46.26989 | 26.76055 | 7458 ft | 226 kts | 14° |
| 2026-05-04 20:27 | 46.28521 | 26.76552 | 7159 ft | 225 kts | 13° |
| 2026-05-04 20:27 | 46.30054 | 26.77003 | 6853 ft | 222 kts | 10° |
| 2026-05-04 20:27 | 46.31424 | 26.77761 | 6524 ft | 205 kts | 37° |
| 2026-05-04 20:28 | 46.32069 | 26.79475 | 6271 ft | 189 kts | 76° |
| 2026-05-04 20:28 | 46.31983 | 26.81345 | 6056 ft | 187 kts | 97° |
| 2026-05-04 20:28 | 46.31983 | 26.83127 | 5811 ft | 169 kts | 80° |
| 2026-05-04 20:28 | 46.32112 | 26.84771 | 5566 ft | 161 kts | 81° |
| 2026-05-04 20:29 | 46.32199 | 26.86357 | 5358 ft | 156 kts | 84° |
| 2026-05-04 20:29 | 46.32233 | 26.87932 | 5151 ft | 157 kts | 86° |
| 2026-05-04 20:29 | 46.32259 | 26.89513 | 4943 ft | 157 kts | 85° |
| 2026-05-04 20:29 | 46.32517 | 26.91003 | 4734 ft | 155 kts | 70° |
| 2026-05-04 20:30 | 46.32865 | 26.92477 | 4528 ft | 156 kts | 69° |
| 2026-05-04 20:30 | 46.33277 | 26.93929 | 4326 ft | 154 kts | 65° |
| 2026-05-04 20:30 | 46.33763 | 26.95279 | 4131 ft | 148 kts | 61° |
| 2026-05-04 20:30 | 46.34339 | 26.96478 | 3935 ft | 144 kts | 43° |
| 2026-05-04 20:31 | 46.35195 | 26.97171 | 3753 ft | 145 kts | 19° |
| 2026-05-04 20:31 | 46.36198 | 26.97278 | 3563 ft | 147 kts | 352° |
| 2026-05-04 20:31 | 46.37193 | 26.96880 | 3372 ft | 153 kts | 345° |
| 2026-05-04 20:31 | 46.38239 | 26.96464 | 3161 ft | 156 kts | 346° |
| 2026-05-04 20:32 | 46.39275 | 26.96047 | 2954 ft | 152 kts | 345° |
| 2026-05-04 20:32 | 46.40278 | 26.95635 | 2763 ft | 148 kts | 345° |
| 2026-05-04 20:32 | 46.40925 | 26.95365 | 2632 ft | 146 kts | 344° |
| 2026-05-04 20:32 | 46.41868 | 26.94969 | 2460 ft | 132 kts | 344° |
| 2026-05-04 20:33 | 46.42705 | 26.94632 | 2254 ft | 120 kts | 346° |
| 2026-05-04 20:33 | 46.43523 | 26.94383 | 2054 ft | 120 kts | 349° |
| 2026-05-04 20:33 | 46.44344 | 26.94151 | 1837 ft | 120 kts | 344° |
| 2026-05-04 20:33 | 46.45121 | 26.93800 | 1719 ft | 112 kts | 344° |
| 2026-05-04 20:34 | 46.45822 | 26.93554 | 1577 ft | 99 kts | 345° |
| 2026-05-04 20:34 | 46.46508 | 26.93256 | 1445 ft | 111 kts | 343° |
| 2026-05-04 20:34 | 46.47274 | 26.92970 | 1341 ft | 109 kts | 345° |
| 2026-05-04 20:34 | 46.47942 | 26.92687 | 1226 ft | 97 kts | 345° |
| 2026-05-04 20:35 | 46.48612 | 26.92428 | 1120 ft | 102 kts | 345° |
| 2026-05-04 20:35 | 46.49311 | 26.92145 | 1004 ft | 105 kts | 345° |
| 2026-05-04 20:35 | 46.50014 | 26.91870 | 874 ft | 105 kts | 345° |
| 2026-05-04 20:35 | 46.50704 | 26.91603 | 736 ft | 103 kts | 345° |
| 2026-05-04 20:36 | 46.51384 | 26.91333 | 630 ft | 97 kts | 345° |
| 2026-05-04 20:36 | 46.51944 | 26.91113 | 613 ft | 71 kts | 345° |
| 2026-05-04 20:36 | 46.52332 | 26.90963 | 609 ft | 44 kts | 346° |
| 2026-05-04 20:36 | 46.52597 | 26.90857 | 618 ft | 36 kts | 343° |
| 2026-05-04 20:37 | 46.52811 | 26.90768 | 606 ft | 28 kts | 344° |
| 2026-05-04 20:37 | 46.52972 | 26.90707 | 613 ft | 17 kts | 339° |
| 2026-05-04 20:37 | 46.53054 | 26.90670 | 608 ft | 10 kts | 343° |
| 2026-05-04 20:37 | 46.39181 | 26.96086 | 2978 ft | 152 kts | 345° |
| 2026-05-04 20:38 | 46.50755 | 26.91583 | 730 ft | 0 kts | 345° |
| 2026-05-04 20:38 | 46.51433 | 26.91314 | 622 ft | 95 kts | 345° |
| 2026-05-04 20:38 | 46.51966 | 26.91104 | 620 ft | 68 kts | 345° |
| 2026-05-04 20:38 | 46.43422 | 26.94411 | 2103 ft | 101 kts | 349° |
| 2026-05-04 20:39 | 46.44079 | 26.94242 | 1864 ft | 94 kts | 348° |
| 2026-05-04 20:39 | 46.44700 | 26.94008 | 1645 ft | 92 kts | 343° |
| 2026-05-04 20:39 | 46.45333 | 26.93734 | 1574 ft | 96 kts | 343° |
| 2026-05-04 20:39 | 46.45985 | 26.93472 | 1547 ft | 102 kts | 344° |
| 2026-05-04 20:40 | 46.46674 | 26.93189 | 1498 ft | 104 kts | 343° |
| 2026-05-04 20:40 | 46.47377 | 26.92905 | 1416 ft | 106 kts | 345° |
| 2026-05-04 20:40 | 46.48081 | 26.92632 | 1277 ft | 104 kts | 345° |
| 2026-05-04 20:40 | 46.48785 | 26.92352 | 1127 ft | 105 kts | 345° |
| 2026-05-04 20:41 | 46.49495 | 26.92069 | 979 ft | 106 kts | 345° |
| 2026-05-04 20:41 | 46.50198 | 26.91794 | 834 ft | 106 kts | 345° |
| 2026-05-04 20:41 | 46.50908 | 26.91520 | 692 ft | 105 kts | 345° |
| 2026-05-04 20:41 | 46.51579 | 26.91256 | 615 ft | 88 kts | 345° |
| 2026-05-04 20:42 | 46.52088 | 26.91056 | 611 ft | 63 kts | 345° |
| 2026-05-04 20:42 | 46.43274 | 26.94452 | 2126 ft | 1 kts | 349° |
| 2026-05-04 20:42 | 46.51444 | 26.91308 | 622 ft | 95 kts | 345° |
| 2026-05-04 20:42 | 46.51680 | 26.91216 | 610 ft | 82 kts | 345° |
| 2026-05-04 20:43 | 46.51855 | 26.91148 | 611 ft | 76 kts | 344° |
| 2026-05-04 20:43 | 46.46619 | 26.93213 | 1498 ft | 90 kts | 343° |
| 2026-05-04 20:43 | 46.47157 | 26.93004 | 1292 ft | 101 kts | 346° |
| 2026-05-04 20:43 | 46.47820 | 26.92734 | 1215 ft | 98 kts | 344° |
| 2026-05-04 20:44 | 46.48489 | 26.92477 | 1122 ft | 101 kts | 345° |
| 2026-05-04 20:44 | 46.49157 | 26.92207 | 1033 ft | 102 kts | 345° |
| 2026-05-04 20:44 | 46.49850 | 26.91932 | 912 ft | 104 kts | 345° |
| 2026-05-04 20:44 | 46.50552 | 26.91659 | 768 ft | 102 kts | 345° |
| 2026-05-04 20:45 | 46.51223 | 26.91397 | 649 ft | 98 kts | 345° |
| 2026-05-04 20:45 | 46.51810 | 26.91166 | 608 ft | 75 kts | 345° |
| 2026-05-04 20:45 | 46.52233 | 26.91000 | 617 ft | 48 kts | 345° |
| 2026-05-04 20:45 | 46.52443 | 26.90916 | 610 ft | 17 kts | 346° |
| 2026-05-04 20:46 | 46.50862 | 26.91539 | 711 ft | 93 kts | 345° |
| 2026-05-04 20:46 | 46.51323 | 26.91357 | 634 ft | 97 kts | 345° |
| 2026-05-04 20:46 | 46.51885 | 26.91137 | 609 ft | 71 kts | 344° |
| 2026-05-04 20:46 | 46.50787 | 26.91568 | 725 ft | 100 kts | 345° |
| 2026-05-04 20:47 | 46.51443 | 26.91309 | 623 ft | 92 kts | 345° |
| 2026-05-04 20:47 | 46.51973 | 26.91102 | 616 ft | 67 kts | 344° |
| 2026-05-04 20:47 | 46.52331 | 26.90960 | 609 ft | 36 kts | 341° |